Time;durP1;ratioP1;P1;durP2;ratioP2;P2;SDS_P1;SDS_P2;PMS_P1;PMS_P2;Temp;Humidity;BMP_temperature;BMP_pressure;BME280_temperature;BME280_humidity;BME280_pressure;Samples;Min_cycle;Max_cycle;Signal;HPM_P1;HPM_P2
2023/06/29 00:01:24;;;;;;;9.63;6.88;;;22.40;99.90;;;;;;5051381;28;20039;-78
2023/06/29 00:04:29;;;;;;;14.85;8.73;;;22.30;99.90;;;;;;5051691;28;20064;-78
2023/06/29 00:07:34;;;;;;;15.88;8.65;;;22.30;99.90;;;;;;5051793;28;20052;-78
2023/06/29 00:10:39;;;;;;;14.93;8.68;;;22.20;99.90;;;;;;5051798;28;20048;-78
2023/06/29 00:13:43;;;;;;;14.98;8.10;;;22.20;99.90;;;;;;5050672;28;20040;-78
2023/06/29 00:16:50;;;;;;;13.02;8.30;;;22.10;99.90;;;;;;5051225;28;20044;-78
2023/06/29 00:19:55;;;;;;;9.73;7.65;;;22.00;99.90;;;;;;5051530;28;20051;-78
2023/06/29 00:22:59;;;;;;;11.73;8.55;;;21.90;99.90;;;;;;5050516;28;20048;-77
2023/06/29 00:26:05;;;;;;;14.60;8.73;;;21.80;99.90;;;;;;5050882;28;20040;-77
2023/06/29 00:29:09;;;;;;;11.27;8.00;;;21.70;99.90;;;;;;5051320;28;20048;-78
2023/06/29 00:32:13;;;;;;;12.93;8.50;;;21.70;99.90;;;;;;5050021;28;20392;-78
2023/06/29 00:35:18;;;;;;;11.05;8.20;;;21.70;99.90;;;;;;5050934;28;20036;-78
2023/06/29 00:38:22;;;;;;;12.52;8.63;;;21.70;99.90;;;;;;5050383;28;20040;-78
2023/06/29 00:41:26;;;;;;;15.23;8.07;;;21.70;99.90;;;;;;5049638;28;20064;-78
2023/06/29 00:44:31;;;;;;;13.10;8.77;;;21.50;99.90;;;;;;5050485;28;20044;-77
2023/06/29 00:47:36;;;;;;;9.93;7.45;;;21.40;99.90;;;;;;5050234;28;20048;-77
2023/06/29 00:50:40;;;;;;;12.32;8.95;;;21.40;99.90;;;;;;5051096;28;20048;-78
2023/06/29 00:53:45;;;;;;;13.52;8.60;;;21.40;99.90;;;;;;5050061;28;20052;-78
2023/06/29 00:56:51;;;;;;;12.13;7.30;;;21.40;99.90;;;;;;5050085;28;20048;-78
2023/06/29 01:00:00;;;;;;;12.95;7.93;;;21.30;99.90;;;;;;5050949;28;20399;-77
2023/06/29 01:03:04;;;;;;;9.80;6.95;;;21.30;99.90;;;;;;5050192;28;20383;-78
2023/06/29 01:06:15;;;;;;;13.32;7.78;;;21.30;99.90;;;;;;5038280;28;20418;-78
2023/06/29 01:09:20;;;;;;;10.27;7.45;;;21.30;99.90;;;;;;5049977;28;20052;-78
2023/06/29 01:12:25;;;;;;;12.07;7.90;;;21.20;99.90;;;;;;5050125;28;20063;-77
2023/06/29 01:15:29;;;;;;;11.30;7.15;;;21.10;99.90;;;;;;5049754;28;20035;-78
2023/06/29 01:18:35;;;;;;;12.65;7.15;;;21.00;99.90;;;;;;5049259;28;20070;-78
2023/06/29 01:21:54;;;;;;;10.38;7.38;;;21.00;99.90;;;;;;5049079;28;20534;-78
2023/06/29 01:24:59;;;;;;;10.60;7.63;;;21.00;99.90;;;;;;5049296;28;20043;-78
2023/06/29 01:28:07;;;;;;;10.50;6.63;;;21.00;99.90;;;;;;5050371;28;20064;-77
2023/06/29 01:31:13;;;;;;;8.90;7.03;;;21.00;99.90;;;;;;5050276;28;20040;-78
2023/06/29 01:34:18;;;;;;;8.05;5.85;;;20.90;99.90;;;;;;5050389;28;20044;-77
2023/06/29 01:37:28;;;;;;;12.20;6.07;;;20.80;99.90;;;;;;5049445;28;20044;-78
2023/06/29 01:40:34;;;;;;;7.55;6.00;;;20.90;99.90;;;;;;5050273;28;20044;-77
2023/06/29 01:43:40;;;;;;;10.43;6.30;;;21.10;99.90;;;;;;5050389;28;20059;-78
2023/06/29 01:46:47;;;;;;;7.80;5.80;;;21.10;99.90;;;;;;5049954;28;20060;-77
2023/06/29 01:49:51;;;;;;;8.45;6.07;;;21.10;99.90;;;;;;5050091;28;20052;-77
2023/06/29 01:52:55;;;;;;;13.77;6.93;;;21.10;99.90;;;;;;5048829;28;20384;-77
2023/06/29 01:55:59;;;;;;;12.10;5.82;;;21.00;99.90;;;;;;5049550;28;20274;-78
2023/06/29 01:59:04;;;;;;;10.82;5.00;;;20.90;99.90;;;;;;5037750;28;20349;-78
2023/06/29 02:02:08;;;;;;;7.88;5.10;;;20.80;99.90;;;;;;5048809;28;20047;-78
2023/06/29 02:05:12;;;;;;;9.15;5.90;;;20.70;99.90;;;;;;5049323;28;20047;-77
2023/06/29 02:08:18;;;;;;;6.95;4.50;;;20.60;99.90;;;;;;5050122;28;20167;-77
2023/06/29 02:11:21;;;;;;;7.07;3.25;;;20.60;99.90;;;;;;5049726;28;20052;-78
2023/06/29 02:14:28;;;;;;;4.50;2.97;;;20.70;99.90;;;;;;5049967;28;20044;-78
2023/06/29 02:17:32;;;;;;;3.50;2.53;;;20.80;99.90;;;;;;5049055;28;20406;-77
2023/06/29 02:20:36;;;;;;;4.10;2.65;;;20.90;99.90;;;;;;5037507;28;20271;-77
2023/06/29 02:23:40;;;;;;;6.60;2.88;;;20.90;99.90;;;;;;5029885;28;20041;-77
2023/06/29 02:26:44;;;;;;;5.03;3.38;;;20.80;99.90;;;;;;5028944;28;20044;-77
2023/06/29 02:29:48;;;;;;;7.45;4.82;;;20.70;99.90;;;;;;5028731;28;20491;-77
2023/06/29 02:32:52;;;;;;;11.80;6.35;;;20.60;99.90;;;;;;5029197;28;20036;-77
2023/06/29 02:35:56;;;;;;;8.60;6.10;;;20.70;99.90;;;;;;5029909;28;20052;-77
2023/06/29 02:39:00;;;;;;;10.35;5.85;;;20.70;99.90;;;;;;5028796;28;20400;-77
2023/06/29 02:42:04;;;;;;;10.38;6.13;;;20.60;99.90;;;;;;5028466;28;20056;-77
2023/06/29 02:45:09;;;;;;;9.18;5.65;;;20.60;99.90;;;;;;5028770;28;20068;-77
2023/06/29 02:48:12;;;;;;;8.50;5.18;;;20.50;99.90;;;;;;5028970;28;20053;-78
2023/06/29 02:51:16;;;;;;;11.68;6.07;;;20.40;99.90;;;;;;5031656;28;20048;-78
2023/06/29 02:54:21;;;;;;;7.38;5.30;;;20.40;99.90;;;;;;5033333;28;20060;-78
2023/06/29 02:57:25;;;;;;;7.13;5.40;;;20.20;99.90;;;;;;5033352;28;20048;-77
2023/06/29 03:00:29;;;;;;;7.88;5.03;;;19.90;99.90;;;;;;5033524;28;20052;-78
2023/06/29 03:03:32;;;;;;;7.32;4.95;;;19.80;99.90;;;;;;5031586;28;20048;-78
2023/06/29 03:06:37;;;;;;;9.52;5.18;;;19.80;99.90;;;;;;5033021;28;20068;-78
2023/06/29 03:09:41;;;;;;;6.85;5.20;;;19.80;99.90;;;;;;5032081;28;20507;-78
2023/06/29 03:12:46;;;;;;;6.70;4.88;;;19.70;99.90;;;;;;5032567;28;20396;-77
2023/06/29 03:15:50;;;;;;;8.38;5.13;;;19.70;99.90;;;;;;5031658;28;20040;-78
2023/06/29 03:18:54;;;;;;;9.73;4.97;;;19.60;99.90;;;;;;5031886;28;20044;-78
2023/06/29 05:03:42;;;;;;;8.05;5.13;;;27.60;99.90;;;;;;5044729;28;20499;-78
2023/06/29 05:06:46;;;;;;;8.00;4.95;;;27.90;99.90;;;;;;5028054;28;20048;-78
2023/06/29 05:09:50;;;;;;;8.40;4.93;;;28.80;99.90;;;;;;5028566;28;20483;-78
2023/06/29 05:12:54;;;;;;;7.22;4.82;;;29.50;99.90;;;;;;5027048;28;20617;-78
2023/06/29 05:15:58;;;;;;;9.93;5.40;;;30.20;99.90;;;;;;5018224;28;20061;-78
2023/06/29 05:19:02;;;;;;;11.50;4.93;;;29.30;99.90;;;;;;5030606;28;20044;-78
2023/06/29 05:22:06;;;;;;;5.40;4.47;;;29.20;99.90;;;;;;5030035;28;20057;-78
2023/06/29 05:25:10;;;;;;;6.85;4.60;;;30.00;99.90;;;;;;5031106;28;20048;-78
2023/06/29 05:28:14;;;;;;;8.85;4.65;;;30.70;99.90;;;;;;5031138;28;20044;-78
2023/06/29 05:31:19;;;;;;;7.68;4.10;;;30.90;99.70;;;;;;5018114;28;20048;-78
2023/06/29 05:34:24;;;;;;;7.85;4.35;;;31.50;98.00;;;;;;5031424;28;20097;-79
2023/06/29 05:37:29;;;;;;;6.07;4.30;;;31.30;97.30;;;;;;5018789;28;20389;-78
2023/06/29 05:40:33;;;;;;;4.43;3.58;;;28.70;98.00;;;;;;5030916;28;20048;-78
2023/06/29 05:43:37;;;;;;;5.25;3.70;;;29.50;97.00;;;;;;5030233;28;20048;-78
2023/06/29 05:46:41;;;;;;;7.38;3.75;;;29.90;96.40;;;;;;5030987;28;20048;-78
2023/06/29 05:49:45;;;;;;;6.50;3.45;;;29.60;94.90;;;;;;5030845;28;20056;-79
2023/06/29 05:52:49;;;;;;;4.50;3.15;;;29.10;96.20;;;;;;5030370;28;20052;-79
2023/06/29 05:55:53;;;;;;;5.90;2.97;;;29.10;95.80;;;;;;5029580;28;20044;-78
2023/06/29 05:58:57;;;;;;;8.18;3.05;;;29.80;95.00;;;;;;5030271;28;20511;-79
2023/06/29 06:02:02;;;;;;;5.35;3.20;;;28.60;94.30;;;;;;5029528;28;20048;-78
2023/06/29 06:05:09;;;;;;;5.60;3.28;;;27.90;95.50;;;;;;5045868;28;20537;-78
2023/06/29 06:08:14;;;;;;;3.92;2.67;;;27.30;96.00;;;;;;5048678;28;20043;-78
2023/06/29 06:11:18;;;;;;;3.67;2.25;;;27.70;95.10;;;;;;5045320;28;20041;-78
2023/06/29 06:14:22;;;;;;;3.17;2.50;;;28.50;94.60;;;;;;5046225;28;20060;-79
2023/06/29 06:17:26;;;;;;;5.22;2.55;;;28.90;94.10;;;;;;5029855;28;20060;-78
2023/06/29 06:20:30;;;;;;;7.13;2.90;;;28.10;93.60;;;;;;5031136;28;20056;-79
2023/06/29 06:23:34;;;;;;;4.38;2.42;;;28.50;94.60;;;;;;5042298;28;20056;-77
2023/06/29 06:26:38;;;;;;;4.82;2.17;;;29.60;93.40;;;;;;5053137;28;20055;-78
2023/06/29 06:29:42;;;;;;;4.10;2.10;;;29.80;92.60;;;;;;5046100;28;20529;-78
2023/06/29 06:32:46;;;;;;;4.88;2.40;;;29.20;92.40;;;;;;5050976;28;20043;-78
2023/06/29 06:35:50;;;;;;;11.18;2.55;;;29.70;92.50;;;;;;5050456;28;20048;-79
2023/06/29 06:38:54;;;;;;;4.30;2.60;;;30.50;92.90;;;;;;5047516;28;20036;-76
2023/06/29 06:41:59;;;;;;;3.90;2.00;;;31.60;91.80;;;;;;5045246;28;20061;-78
2023/06/29 06:45:06;;;;;;;9.23;2.17;;;32.20;91.20;;;;;;5034765;28;20052;-78
2023/06/29 06:48:10;;;;;;;4.03;2.15;;;33.00;90.90;;;;;;5048465;28;20392;-79
2023/06/29 06:51:14;;;;;;;2.95;2.20;;;33.40;89.30;;;;;;5045898;28;20056;-79
2023/06/29 06:54:18;;;;;;;3.88;2.20;;;32.40;86.40;;;;;;5029146;28;20048;-78
2023/06/29 06:57:22;;;;;;;3.20;1.80;;;31.90;86.50;;;;;;5045729;28;20051;-78
2023/06/29 07:00:27;;;;;;;4.00;2.50;;;30.80;88.00;;;;;;5030210;28;20476;-78
2023/06/29 07:03:31;;;;;;;3.17;2.03;;;30.10;90.00;;;;;;5021722;28;20044;-79
2023/06/29 07:06:35;;;;;;;2.53;2.10;;;31.50;89.90;;;;;;5050644;28;20052;-78
2023/06/29 07:09:39;;;;;;;3.58;2.08;;;32.80;89.60;;;;;;5026608;28;20048;-79
2023/06/29 07:12:44;;;;;;;3.03;2.03;;;34.00;87.70;;;;;;5047634;28;20044;-79
2023/06/29 07:15:49;;;;;;;2.75;2.13;;;33.50;88.00;;;;;;5017990;28;20396;-79
2023/06/29 07:19:04;;;;;;;4.85;2.80;;;33.80;87.20;;;;;;5046101;28;20036;-80
2023/06/29 07:22:08;;;;;;;2.78;2.10;;;34.80;87.70;;;;;;5045927;28;20391;-79
2023/06/29 07:25:11;;;;;;;10.30;2.55;;;35.50;85.60;;;;;;5050735;28;20047;-78
2023/06/29 07:28:15;;;;;;;2.85;2.00;;;35.90;84.10;;;;;;5030799;28;20045;-78
2023/06/29 07:31:38;;;;;;;3.47;2.15;;;36.00;83.70;;;;;;5033421;28;20599;-82
2023/06/29 07:34:42;;;;;;;3.55;2.08;;;36.90;83.00;;;;;;5046915;28;20045;-83
2023/06/29 07:37:48;;;;;;;4.35;2.00;;;37.30;79.80;;;;;;5046700;28;20055;-82
2023/06/29 07:40:51;;;;;;;2.67;2.10;;;36.50;81.60;;;;;;5042848;28;20063;-80
2023/06/29 07:43:56;;;;;;;8.60;2.20;;;36.40;80.10;;;;;;5047629;28;20132;-81
2023/06/29 07:47:00;;;;;;;2.63;1.88;;;36.50;80.00;;;;;;5031470;28;20388;-82
2023/06/29 07:50:05;;;;;;;2.55;1.73;;;36.80;79.40;;;;;;5034341;28;20044;-81
2023/06/29 07:53:10;;;;;;;4.15;1.95;;;36.60;75.20;;;;;;5046656;28;20048;-81
2023/06/29 07:56:14;;;;;;;3.65;2.00;;;36.50;77.60;;;;;;5036278;28;20048;-80
2023/06/29 07:59:18;;;;;;;2.67;1.80;;;36.10;76.80;;;;;;5034994;28;20032;-81
2023/06/29 08:02:22;;;;;;;3.13;1.67;;;36.20;78.40;;;;;;5037211;28;20056;-81
2023/06/29 08:05:27;;;;;;;2.58;2.03;;;35.50;75.50;;;;;;5029131;28;20511;-82
2023/06/29 08:08:31;;;;;;;2.28;1.80;;;36.10;76.70;;;;;;5036360;28;20044;-82
2023/06/29 08:11:35;;;;;;;3.25;1.92;;;36.00;75.10;;;;;;5047773;28;20040;-83
2023/06/29 08:14:39;;;;;;;4.22;2.15;;;36.60;73.90;;;;;;5046955;28;20040;-81
2023/06/29 08:17:43;;;;;;;3.45;2.00;;;37.40;74.40;;;;;;5046312;28;20048;-81
2023/06/29 08:20:48;;;;;;;7.50;2.30;;;37.50;73.30;;;;;;5030333;28;20060;-80
2023/06/29 08:23:51;;;;;;;17.58;2.28;;;36.70;74.00;;;;;;5034614;28;20083;-81
2023/06/29 08:26:55;;;;;;;18.15;2.90;;;38.10;74.10;;;;;;5044816;28;20052;-78
2023/06/29 08:30:00;;;;;;;3.78;2.10;;;40.00;72.40;;;;;;5033648;28;20040;-78
2023/06/29 08:33:04;;;;;;;4.53;2.00;;;40.90;70.90;;;;;;5042470;28;20491;-78
2023/06/29 08:36:09;;;;;;;2.67;1.83;;;41.80;69.60;;;;;;5035482;28;20510;-80
2023/06/29 08:39:13;;;;;;;8.45;1.90;;;42.50;68.20;;;;;;5043496;28;20538;-81
2023/06/29 08:42:17;;;;;;;4.53;2.22;;;42.70;66.80;;;;;;5048570;28;20502;-82
2023/06/29 08:45:21;;;;;;;6.70;1.75;;;43.20;65.90;;;;;;5044669;28;20044;-79
2023/06/29 08:48:27;;;;;;;3.08;2.17;;;42.90;65.40;;;;;;5045683;28;20048;-80
2023/06/29 08:51:34;;;;;;;7.13;2.28;;;41.70;64.60;;;;;;5039564;28;20057;-81
2023/06/29 08:54:39;;;;;;;15.77;2.40;;;42.10;65.40;;;;;;5042875;28;20036;-81
2023/06/29 08:57:43;;;;;;;3.55;2.10;;;41.80;66.20;;;;;;5021108;28;20047;-81
2023/06/29 09:00:48;;;;;;;4.22;2.03;;;38.20;63.90;;;;;;5037058;28;20048;-80
2023/06/29 09:03:52;;;;;;;3.40;2.28;;;36.80;68.70;;;;;;5032010;28;20056;-81
2023/06/29 09:06:56;;;;;;;6.43;2.15;;;37.70;69.00;;;;;;5043366;28;20060;-80
2023/06/29 09:10:00;;;;;;;5.07;2.00;;;36.00;68.70;;;;;;5049815;28;20044;-80
2023/06/29 09:13:05;;;;;;;6.95;2.25;;;38.20;69.50;;;;;;5046237;28;20135;-81
2023/06/29 09:16:10;;;;;;;2.78;2.08;;;38.60;67.00;;;;;;5046874;28;20048;-80
2023/06/29 09:19:14;;;;;;;8.55;2.00;;;40.80;66.60;;;;;;5049328;28;20048;-81
2023/06/29 09:22:19;;;;;;;8.02;2.22;;;42.40;64.60;;;;;;5040061;28;20048;-81
2023/06/29 09:25:26;;;;;;;4.65;2.00;;;42.50;63.90;;;;;;5039837;28;20063;-81
2023/06/29 09:28:35;;;;;;;4.82;3.35;;;42.80;65.40;;;;;;5050880;28;20483;-82
2023/06/29 09:31:39;;;;;;;4.88;2.03;;;43.20;63.30;;;;;;5040610;28;20044;-77
2023/06/29 09:34:48;;;;;;;5.53;2.10;;;40.50;62.90;;;;;;5038032;28;20090;-82
2023/06/29 09:37:53;;;;;;;2.78;1.95;;;41.20;64.10;;;;;;5042674;28;20036;-82
2023/06/29 09:40:57;;;;;;;3.40;2.70;;;43.30;62.40;;;;;;5040520;28;20399;-82
2023/06/29 09:44:01;;;;;;;4.95;2.50;;;44.30;61.60;;;;;;5031797;28;20045;-83
2023/06/29 09:47:06;;;;;;;6.32;2.22;;;45.30;61.40;;;;;;5033212;28;20056;-85
2023/06/29 09:50:20;;;;;;;2.67;1.70;;;42.10;60.00;;;;;;5047333;28;20040;-84
2023/06/29 09:53:32;;;;;;;2.78;1.65;;;41.60;62.10;;;;;;5046199;28;20427;-83
2023/06/29 09:56:37;;;;;;;4.20;2.25;;;40.60;60.20;;;;;;5044204;28;20028;-83
2023/06/29 09:59:44;;;;;;;3.05;1.67;;;40.30;62.20;;;;;;5053465;28;20048;-79
2023/06/29 10:02:48;;;;;;;3.63;1.58;;;41.70;62.20;;;;;;5050937;28;20044;-81
2023/06/29 10:05:58;;;;;;;3.15;1.55;;;39.80;61.20;;;;;;5042830;28;20492;-82
2023/06/29 10:09:04;;;;;;;;;;;41.10;61.70;;;;;;5045431;28;20040;-81
2023/06/29 10:12:12;;;;;;;2.38;1.90;;;43.00;61.70;;;;;;5049089;28;19913;-82
2023/06/29 10:15:18;;;;;;;2.92;1.75;;;38.30;62.60;;;;;;5052517;28;20482;-82
2023/06/29 10:18:29;;;;;;;10.25;2.05;;;41.00;62.40;;;;;;5041891;28;20051;-81
2023/06/29 10:21:34;;;;;;;4.72;1.85;;;43.20;61.70;;;;;;5052205;28;20059;-79
2023/06/29 10:24:43;;;;;;;2.85;1.70;;;41.50;60.20;;;;;;5052459;28;20056;-80
2023/06/29 10:27:49;;;;;;;2.92;1.52;;;40.50;61.40;;;;;;5042143;28;20052;-80
2023/06/29 10:30:58;;;;;;;2.95;1.50;;;42.50;61.30;;;;;;5052084;28;20387;-79
2023/06/29 10:34:07;;;;;;;5.25;1.67;;;42.10;62.20;;;;;;5052977;28;20040;-79
2023/06/29 10:37:32;;;;;;;3.65;1.65;;;40.70;60.90;;;;;;5049488;28;20040;-79
2023/06/29 10:40:47;;;;;;;3.40;1.95;;;41.90;62.00;;;;;;5051632;28;20055;-79
2023/06/29 10:44:10;;;;;;;2.70;2.00;;;43.90;61.80;;;;;;5043962;28;20048;-80
2023/06/29 10:47:30;;;;;;;2.80;1.80;;;40.20;61.90;;;;;;5043042;28;20049;-80
2023/06/29 10:50:41;;;;;;;2.20;1.63;;;38.40;62.20;;;;;;5051024;28;20060;-81
2023/06/29 10:53:48;;;;;;;5.88;1.83;;;38.00;64.00;;;;;;5048203;28;20044;-79
2023/06/29 10:57:11;;;;;;;6.80;1.70;;;38.50;63.00;;;;;;5052179;28;20059;-79
2023/06/29 11:00:16;;;;;;;3.65;1.60;;;40.40;64.90;;;;;;5040022;28;20498;-79
2023/06/29 11:03:21;;;;;;;4.72;1.70;;;41.00;63.00;;;;;;5047278;28;20051;-79
2023/06/29 11:06:32;;;;;;;6.95;1.52;;;40.50;62.60;;;;;;5039272;28;20036;-79
2023/06/29 11:09:36;;;;;;;3.50;1.60;;;39.90;62.80;;;;;;5050618;28;20036;-78
2023/06/29 11:12:41;;;;;;;4.13;1.42;;;39.50;63.50;;;;;;5048959;28;20368;-77
2023/06/29 11:15:53;;;;;;;3.78;1.63;;;38.90;61.20;;;;;;5052155;28;20040;-77
2023/06/29 11:19:00;;;;;;;3.28;1.70;;;38.20;63.90;;;;;;5053352;28;20372;-78
2023/06/29 11:22:04;;;;;;;3.80;1.50;;;38.90;61.80;;;;;;5052330;28;20044;-77
2023/06/29 11:25:16;;;;;;;4.50;1.85;;;40.20;60.60;;;;;;5037459;28;20052;-78
2023/06/29 11:28:20;;;;;;;1.83;1.45;;;40.70;60.20;;;;;;5052273;28;20495;-77
2023/06/29 11:31:25;;;;;;;2.30;1.65;;;38.70;60.10;;;;;;5050261;28;20047;-77
2023/06/29 11:34:29;;;;;;;2.88;1.60;;;36.30;65.40;;;;;;5051528;28;20028;-78
2023/06/29 11:37:35;;;;;;;4.53;1.80;;;37.10;63.20;;;;;;5025758;28;20064;-76
2023/06/29 11:40:40;;;;;;;4.25;1.58;;;37.80;64.20;;;;;;5046107;28;20055;-76
2023/06/29 11:43:44;;;;;;;3.40;1.98;;;36.50;64.30;;;;;;5046927;28;20052;-77
2023/06/29 11:46:48;;;;;;;2.33;1.88;;;37.00;65.10;;;;;;5052665;28;20483;-77
2023/06/29 11:49:59;;;;;;;2.92;1.80;;;36.90;64.10;;;;;;5050652;28;20048;-77
2023/06/29 11:53:05;;;;;;;3.08;1.90;;;38.50;64.00;;;;;;5048062;28;20032;-77
2023/06/29 11:56:23;;;;;;;4.00;2.05;;;40.00;63.90;;;;;;5046133;28;20039;-77
2023/06/29 11:59:28;;;;;;;2.47;1.85;;;40.80;63.30;;;;;;5042819;28;20053;-77
2023/06/29 12:02:33;;;;;;;4.22;2.20;;;38.90;64.30;;;;;;5024227;28;20539;-77
2023/06/29 12:05:41;;;;;;;6.68;1.95;;;35.90;64.90;;;;;;5049977;28;20199;-77
2023/06/29 12:08:50;;;;;;;3.67;1.75;;;35.30;68.00;;;;;;5046288;28;20044;-76
2023/06/29 12:12:04;;;;;;;3.97;1.80;;;33.80;65.80;;;;;;5027536;28;20037;-77
2023/06/29 12:15:14;;;;;;;3.45;1.45;;;33.50;68.90;;;;;;5050871;28;20028;-77
2023/06/29 12:18:18;;;;;;;3.05;1.92;;;35.30;69.10;;;;;;5050094;28;20048;-77
2023/06/29 12:21:23;;;;;;;3.45;1.70;;;36.00;65.70;;;;;;5042643;28;20072;-77
2023/06/29 12:24:28;;;;;;;5.13;2.10;;;35.10;67.40;;;;;;5044075;28;20052;-79
2023/06/29 12:27:32;;;;;;;3.85;2.08;;;35.10;67.20;;;;;;5043184;28;20048;-77
2023/06/29 12:30:37;;;;;;;4.78;2.05;;;36.20;67.20;;;;;;5047175;28;20044;-78
2023/06/29 12:33:41;;;;;;;3.40;2.30;;;34.00;65.60;;;;;;5045464;28;20044;-77
2023/06/29 12:36:45;;;;;;;2.33;1.70;;;34.90;67.20;;;;;;5039575;28;20043;-77
2023/06/29 12:39:49;;;;;;;4.60;2.00;;;35.30;67.20;;;;;;5035917;28;20032;-76
2023/06/29 12:42:54;;;;;;;3.17;1.83;;;33.60;66.10;;;;;;5039940;28;20032;-76
2023/06/29 12:45:58;;;;;;;3.17;1.88;;;34.90;67.80;;;;;;5042189;28;20040;-76
2023/06/29 12:49:03;;;;;;;11.63;2.40;;;36.20;68.70;;;;;;5024738;28;20040;-78
2023/06/29 12:52:07;;;;;;;3.97;1.80;;;36.60;67.90;;;;;;5033603;28;20052;-78
2023/06/29 12:55:11;;;;;;;3.13;1.70;;;35.20;65.70;;;;;;5043028;28;20507;-78
2023/06/29 12:58:15;;;;;;;3.30;1.50;;;35.00;68.70;;;;;;5040696;28;20048;-77
2023/06/29 13:01:19;;;;;;;4.20;1.77;;;34.90;67.20;;;;;;5041533;28;20487;-77
2023/06/29 13:04:23;;;;;;;3.72;1.90;;;35.70;68.20;;;;;;5034107;28;20060;-77
2023/06/29 13:07:28;;;;;;;4.30;1.98;;;36.40;67.60;;;;;;5032156;28;20431;-78
2023/06/29 13:10:33;;;;;;;3.70;2.10;;;35.30;69.30;;;;;;5038174;28;20040;-77
2023/06/29 13:13:37;;;;;;;2.55;1.95;;;36.40;68.20;;;;;;5040165;28;20043;-78
2023/06/29 13:16:41;;;;;;;2.65;1.63;;;35.00;67.60;;;;;;5047201;28;20048;-78
2023/06/29 13:19:47;;;;;;;6.72;1.88;;;34.30;70.00;;;;;;5047095;28;20051;-78
2023/06/29 13:22:51;;;;;;;4.82;1.90;;;34.90;66.30;;;;;;5042388;28;20048;-78
2023/06/29 13:25:54;;;;;;;5.13;2.10;;;35.20;67.80;;;;;;5033838;28;20047;-77
2023/06/29 13:28:58;;;;;;;2.78;2.00;;;34.90;67.40;;;;;;5044743;28;20036;-79
2023/06/29 13:32:03;;;;;;;2.00;1.60;;;33.60;67.60;;;;;;5036216;28;20044;-77
2023/06/29 13:35:07;;;;;;;4.22;1.95;;;33.30;68.80;;;;;;5042390;28;20044;-77
2023/06/29 13:38:11;;;;;;;6.05;2.03;;;32.80;70.70;;;;;;5050036;28;20058;-78
2023/06/29 13:41:17;;;;;;;2.50;1.90;;;32.30;70.80;;;;;;5045015;28;20432;-77
2023/06/29 13:44:21;;;;;;;2.80;2.00;;;32.60;71.30;;;;;;5037823;28;20052;-78
2023/06/29 13:47:26;;;;;;;3.42;2.10;;;32.50;72.90;;;;;;5042153;28;20048;-77
2023/06/29 13:50:30;;;;;;;2.85;2.00;;;33.10;69.10;;;;;;5042205;28;20039;-79
2023/06/29 13:53:33;;;;;;;2.70;2.03;;;32.90;70.00;;;;;;5040011;28;20036;-76
2023/06/29 13:56:38;;;;;;;3.25;2.33;;;33.60;69.90;;;;;;5028007;28;20451;-79
2023/06/29 13:59:41;;;;;;;3.75;2.10;;;34.80;69.60;;;;;;5022802;28;20052;-76
2023/06/29 14:02:45;;;;;;;5.75;2.35;;;34.80;69.40;;;;;;5028497;28;20036;-82
2023/06/29 14:05:49;;;;;;;6.20;2.03;;;32.70;72.20;;;;;;5038828;28;20384;-79
2023/06/29 14:08:53;;;;;;;6.35;2.35;;;32.70;70.40;;;;;;5045415;28;20044;-78
2023/06/29 14:11:59;;;;;;;7.35;2.30;;;33.40;69.50;;;;;;5031254;28;20375;-81
2023/06/29 14:15:03;;;;;;;4.05;2.20;;;34.40;70.40;;;;;;5037524;28;20056;-79
2023/06/29 14:18:07;;;;;;;4.93;2.45;;;34.60;68.60;;;;;;5038308;28;20040;-79
2023/06/29 14:21:12;;;;;;;3.05;2.15;;;33.60;71.10;;;;;;5039131;28;20040;-79
2023/06/29 14:24:16;;;;;;;2.78;1.70;;;33.90;68.70;;;;;;5050872;28;20048;-78
2023/06/29 14:27:21;;;;;;;2.97;2.25;;;34.10;68.80;;;;;;5047959;28;20044;-80
2023/06/29 14:30:25;;;;;;;4.38;2.38;;;33.80;69.60;;;;;;5028599;28;20056;-80
2023/06/29 14:33:30;;;;;;;3.92;2.13;;;33.90;70.90;;;;;;5035849;28;20387;-79
2023/06/29 14:36:34;;;;;;;4.25;1.90;;;33.10;72.10;;;;;;5037822;28;20044;-80
2023/06/29 14:39:38;;;;;;;7.35;2.42;;;33.60;69.40;;;;;;5047134;28;20048;-79
2023/06/29 14:42:43;;;;;;;3.92;2.00;;;34.00;68.40;;;;;;5038036;28;20045;-79
2023/06/29 14:45:47;;;;;;;3.70;2.35;;;33.90;69.50;;;;;;5043498;28;20048;-78
2023/06/29 14:48:55;;;;;;;3.40;2.30;;;34.20;69.80;;;;;;5047217;28;20056;-77
2023/06/29 14:51:58;;;;;;;9.02;2.22;;;33.00;70.60;;;;;;5036580;28;20048;-77
2023/06/29 14:55:04;;;;;;;3.42;2.42;;;33.10;70.90;;;;;;5044537;28;20040;-77
2023/06/29 14:58:09;;;;;;;7.05;2.38;;;32.80;70.70;;;;;;5043310;28;20060;-76
2023/06/29 15:01:13;;;;;;;5.57;2.28;;;33.00;70.00;;;;;;5030601;28;20045;-77
2023/06/29 15:04:17;;;;;;;9.60;2.42;;;33.50;71.30;;;;;;5039066;28;20063;-77
2023/06/29 15:07:23;;;;;;;4.97;2.65;;;33.50;71.10;;;;;;5046881;28;20051;-77
2023/06/29 15:10:28;;;;;;;5.57;2.40;;;32.70;70.60;;;;;;5047050;28;20056;-77
2023/06/29 15:13:32;;;;;;;3.22;2.17;;;32.80;70.30;;;;;;5037605;28;20064;-77
2023/06/29 15:16:36;;;;;;;8.93;2.38;;;33.10;71.90;;;;;;5031212;28;20090;-77
2023/06/29 15:19:40;;;;;;;2.92;2.20;;;32.50;74.70;;;;;;5039939;28;20060;-77
2023/06/29 15:22:44;;;;;;;6.10;2.45;;;31.40;71.90;;;;;;5044605;28;20051;-77
2023/06/29 15:25:48;;;;;;;3.50;2.70;;;31.50;73.50;;;;;;5012421;28;20047;-78
2023/06/29 15:28:52;;;;;;;4.63;2.33;;;32.10;74.50;;;;;;5047310;28;20051;-78
2023/06/29 15:31:56;;;;;;;3.20;2.45;;;32.60;72.10;;;;;;5041611;28;20040;-77
2023/06/29 15:35:02;;;;;;;3.60;2.30;;;32.70;71.90;;;;;;5049942;28;20060;-78
2023/06/29 15:38:07;;;;;;;7.82;2.72;;;33.10;74.20;;;;;;5051569;28;20059;-78
2023/06/29 15:41:11;;;;;;;4.45;2.30;;;33.30;72.80;;;;;;5051868;28;20040;-77
2023/06/29 15:44:15;;;;;;;5.03;3.08;;;33.50;72.90;;;;;;5052171;28;20051;-77
2023/06/29 15:47:19;;;;;;;5.07;2.78;;;33.50;70.10;;;;;;5052082;28;20036;-78
2023/06/29 15:50:23;;;;;;;4.03;2.35;;;33.10;70.10;;;;;;5052120;28;20064;-78
2023/06/29 15:53:27;;;;;;;4.00;2.50;;;32.90;71.20;;;;;;5051630;28;20036;-77
2023/06/29 15:56:31;;;;;;;3.97;2.58;;;32.50;70.40;;;;;;5051258;28;20048;-77
2023/06/29 15:59:35;;;;;;;12.65;2.72;;;32.70;73.50;;;;;;5051998;28;20052;-77
2023/06/29 16:02:39;;;;;;;4.35;2.40;;;32.90;71.90;;;;;;5051475;28;20044;-77
2023/06/29 16:05:43;;;;;;;4.53;2.45;;;33.20;72.30;;;;;;5050643;28;20047;-77
2023/06/29 16:08:47;;;;;;;3.05;2.42;;;33.40;71.60;;;;;;5046482;28;20039;-78
2023/06/29 16:11:51;;;;;;;3.58;2.55;;;33.30;72.00;;;;;;5051306;28;20044;-78
2023/06/29 16:14:59;;;;;;;3.60;2.47;;;32.30;72.50;;;;;;5039018;28;20056;-77
2023/06/29 16:18:02;;;;;;;4.25;2.80;;;31.80;73.50;;;;;;5051349;28;20048;-77
2023/06/29 16:21:07;;;;;;;7.22;2.53;;;31.70;74.20;;;;;;5051286;28;20068;-77
2023/06/29 16:24:11;;;;;;;6.55;2.75;;;31.80;74.70;;;;;;5038938;28;20036;-77
2023/06/29 16:27:15;;;;;;;4.60;2.70;;;31.50;74.50;;;;;;5038559;28;20514;-77
2023/06/29 16:30:21;;;;;;;2.97;2.47;;;31.70;73.00;;;;;;5051347;28;20502;-78
2023/06/29 16:33:25;;;;;;;3.78;2.88;;;31.50;72.30;;;;;;5051023;28;20040;-77
2023/06/29 16:36:30;;;;;;;6.25;3.00;;;30.80;72.30;;;;;;5051464;28;20068;-78
2023/06/29 16:39:33;;;;;;;3.88;2.75;;;30.90;73.10;;;;;;5050737;28;20043;-76
2023/06/29 16:42:38;;;;;;;3.47;2.50;;;31.10;75.00;;;;;;5050852;28;20074;-77
2023/06/29 16:45:45;;;;;;;3.65;2.58;;;31.20;74.50;;;;;;5051235;28;20063;-77
2023/06/29 16:48:56;;;;;;;3.72;2.70;;;31.50;74.60;;;;;;5049487;28;20098;-77
2023/06/29 16:52:00;;;;;;;9.18;3.33;;;31.60;75.00;;;;;;5050350;28;20380;-77
2023/06/29 16:55:04;;;;;;;7.07;3.05;;;31.50;74.60;;;;;;5051046;28;20103;-77
2023/06/29 16:58:08;;;;;;;3.72;2.85;;;31.20;76.40;;;;;;5051022;28;20337;-77
2023/06/29 17:01:13;;;;;;;5.57;2.63;;;31.10;76.50;;;;;;5050898;28;20056;-77
2023/06/29 17:04:17;;;;;;;4.28;2.72;;;30.90;76.50;;;;;;5049755;28;20060;-77
2023/06/29 17:07:21;;;;;;;4.35;2.92;;;30.80;77.40;;;;;;5050445;28;20044;-77
2023/06/29 17:10:26;;;;;;;5.65;2.90;;;30.70;76.30;;;;;;5050407;28;20052;-77
2023/06/29 17:13:30;;;;;;;6.60;2.95;;;30.40;76.90;;;;;;5050117;28;20032;-77
2023/06/29 17:16:34;;;;;;;5.93;2.90;;;29.80;78.90;;;;;;5050643;28;20052;-77
2023/06/29 17:19:39;;;;;;;5.18;2.75;;;29.60;79.70;;;;;;5036998;28;20064;-77
2023/06/29 17:22:43;;;;;;;5.30;2.75;;;29.40;79.30;;;;;;5051038;28;20055;-77
2023/06/29 17:25:49;;;;;;;5.40;3.10;;;29.50;79.90;;;;;;5070562;28;20043;-77
2023/06/29 17:28:53;;;;;;;5.15;3.42;;;29.40;81.40;;;;;;5070127;28;20055;-77
2023/06/29 17:31:57;;;;;;;4.78;3.00;;;29.40;80.90;;;;;;5057492;28;20052;-77
2023/06/29 17:35:01;;;;;;;4.95;2.97;;;29.40;81.20;;;;;;5070477;28;20384;-77
2023/06/29 17:38:05;;;;;;;5.15;2.90;;;29.40;81.30;;;;;;5057842;28;20533;-77
2023/06/29 17:41:09;;;;;;;3.90;2.25;;;29.10;82.40;;;;;;5054395;28;20031;-77
2023/06/29 17:44:13;;;;;;;8.60;2.28;;;29.10;82.70;;;;;;5070258;28;20477;-77